Time;durP1;ratioP1;P1;durP2;ratioP2;P2;SDS_P1;SDS_P2;PMS_P1;PMS_P2;Temp;Humidity;BMP_temperature;BMP_pressure;BME280_temperature;BME280_humidity;BME280_pressure;Samples;Min_cycle;Max_cycle;Signal;HPM_P1;HPM_P2
2024/04/15 00:00:17;;;;;;;11.50;7.80;;;;;;;22.14;49.61;99589.70;108282;1256;71348;-66
2024/04/15 00:02:44;;;;;;;13.40;7.80;;;;;;;22.08;49.58;99590.05;108253;1251;61081;-66
2024/04/15 00:05:11;;;;;;;10.60;7.80;;;;;;;21.95;49.86;99603.92;108247;1256;61112;-65
2024/04/15 00:07:39;;;;;;;10.80;7.50;;;;;;;21.90;49.96;99605.52;108202;1251;73395;-64
2024/04/15 00:10:07;;;;;;;10.50;7.70;;;;;;;21.79;50.10;99606.88;108289;1251;68716;-65
2024/04/15 00:12:34;;;;;;;12.60;7.90;;;;;;;21.77;50.15;99609.23;108295;1253;72659;-66
2024/04/15 00:15:02;;;;;;;14.30;7.40;;;;;;;21.80;49.96;99612.09;108304;1257;61083;-66
2024/04/15 00:17:29;;;;;;;10.20;7.30;;;;;;;21.74;50.03;99618.02;108247;1251;61105;-66
2024/04/15 00:19:56;;;;;;;12.40;6.60;;;;;;;21.63;50.31;99618.02;108205;1251;74602;-65
2024/04/15 00:22:23;;;;;;;10.10;6.60;;;;;;;21.65;50.12;99617.65;108259;1257;70421;-65
2024/04/15 00:24:51;;;;;;;12.50;7.90;;;;;;;21.51;50.39;99621.16;108271;1254;72657;-66
2024/04/15 00:27:18;;;;;;;11.20;7.40;;;;;;;21.35;50.72;99625.27;108242;1251;62161;-66
2024/04/15 00:29:45;;;;;;;11.60;7.70;;;;;;;21.17;51.30;99627.98;108286;1251;59978;-65
2024/04/15 00:32:13;;;;;;;12.00;7.60;;;;;;;21.12;51.36;99629.63;108190;1251;73783;-65
2024/04/15 00:34:40;;;;;;;13.60;7.80;;;;;;;21.12;51.31;99623.76;108244;1251;68842;-66
2024/04/15 00:37:07;;;;;;;11.10;8.40;;;;;;;21.13;51.18;99620.44;108271;1256;72699;-66
2024/04/15 00:39:36;;;;;;;10.70;7.50;;;;;;;21.08;51.23;99624.32;108283;1254;61561;-66
2024/04/15 00:42:03;;;;;;;13.20;8.20;;;;;;;21.18;50.87;99621.61;108333;1251;61128;-66
2024/04/15 00:44:34;;;;;;;12.10;7.90;;;;;;;21.01;51.08;99619.25;108269;1251;74677;-65
2024/04/15 00:47:02;;;;;;;17.40;7.80;;;;;;;21.02;50.98;99618.04;108178;1251;72130;-66
2024/04/15 00:49:32;;;;;;;12.10;8.10;;;;;;;20.93;51.13;99618.84;108164;1251;70215;-65
2024/04/15 00:52:00;;;;;;;10.90;7.50;;;;;;;20.72;51.49;99623.71;108282;1251;61666;-66
2024/04/15 00:54:27;;;;;;;14.50;8.00;;;;;;;20.58;51.69;99622.39;108390;1251;61188;-66
2024/04/15 00:56:54;;;;;;;8.60;7.40;;;;;;;20.54;51.71;99631.89;108402;1251;75013;-65
2024/04/15 00:59:22;;;;;;;7.50;6.00;;;;;;;20.52;51.44;99634.52;108463;1251;70627;-65
2024/04/15 01:01:49;;;;;;;10.10;6.80;;;;;;;20.61;51.00;99636.92;108342;1254;71858;-66
2024/04/15 01:04:16;;;;;;;10.70;5.60;;;;;;;20.59;50.68;99639.29;108117;1260;61710;-65
2024/04/15 01:06:44;;;;;;;10.60;5.30;;;;;;;20.45;50.28;99633.55;108436;1250;61081;-65
2024/04/15 01:09:12;;;;;;;10.10;5.50;;;;;;;20.37;49.95;99636.66;108253;1251;74661;-66
2024/04/15 01:11:39;;;;;;;6.30;4.60;;;;;;;20.29;49.41;99642.32;108339;1251;70082;-66
2024/04/15 01:14:06;;;;;;;10.70;5.00;;;;;;;20.19;48.86;99644.68;108261;1251;72897;-66
2024/04/15 01:16:37;;;;;;;10.10;5.00;;;;;;;20.30;47.93;99644.61;108189;1251;61081;-65
2024/04/15 01:19:05;;;;;;;9.50;4.40;;;;;;;20.39;46.93;99647.04;108304;1250;61117;-66
2024/04/15 01:21:32;;;;;;;9.60;3.40;;;;;;;20.46;45.45;99648.63;108267;1257;74944;-66
2024/04/15 01:24:00;;;;;;;6.40;3.80;;;;;;;20.28;43.29;99652.80;108330;1257;68451;-66
2024/04/15 01:26:29;;;;;;;8.60;3.50;;;;;;;20.33;42.17;99655.21;108203;1251;72615;-66
2024/04/15 01:28:56;;;;;;;6.10;2.90;;;;;;;20.25;41.71;99652.83;108272;1251;61272;-66
2024/04/15 01:31:24;;;;;;;7.50;2.80;;;;;;;20.01;40.33;99651.16;108278;1256;61117;-65
2024/04/15 01:33:51;;;;;;;4.70;2.40;;;;;;;19.97;39.02;99656.31;108416;1257;74636;-66
2024/04/15 01:36:18;;;;;;;4.80;2.20;;;;;;;19.92;38.60;99646.36;108321;1251;71560;-66
2024/04/15 01:38:45;;;;;;;4.30;2.50;;;;;;;19.85;38.05;99648.54;108304;1254;71737;-65
2024/04/15 01:41:13;;;;;;;4.40;2.40;;;;;;;19.80;38.17;99647.00;108428;1251;61405;-65
2024/04/15 01:43:40;;;;;;;6.30;2.10;;;;;;;19.64;37.67;99652.46;108335;1251;61241;-65
2024/04/15 01:46:07;;;;;;;7.00;2.70;;;;;;;19.67;36.84;99645.92;108319;1251;73443;-66
2024/04/15 01:48:35;;;;;;;4.50;2.10;;;;;;;19.64;36.87;99648.52;108335;1256;68905;-66
2024/04/15 01:51:03;;;;;;;4.10;2.00;;;;;;;19.44;36.09;99651.91;108309;1251;71191;-66
2024/04/15 01:53:30;;;;;;;3.80;1.80;;;;;;;19.31;35.99;99652.48;108346;1251;61831;-65
2024/04/15 01:55:57;;;;;;;3.30;2.00;;;;;;;19.25;35.82;99656.13;108277;1251;61646;-65
2024/04/15 01:58:25;;;;;;;2.30;1.80;;;;;;;19.30;35.69;99656.57;108337;1251;75020;-65
2024/04/15 02:00:53;;;;;;;6.10;2.00;;;;;;;19.26;35.94;99654.41;108304;1251;68974;-65
2024/04/15 02:03:21;;;;;;;6.90;2.00;;;;;;;19.06;34.85;99652.48;108147;1254;70730;-65
2024/04/15 02:05:48;;;;;;;5.50;1.70;;;;;;;18.90;35.84;99656.08;108370;1254;61098;-67
2024/04/15 02:08:16;;;;;;;6.00;1.60;;;;;;;18.86;35.82;99654.40;108337;1250;61133;-65
2024/04/15 02:10:43;;;;;;;2.60;1.80;;;;;;;18.81;35.38;99657.86;108299;1250;74694;-65
2024/04/15 02:13:10;;;;;;;2.20;1.40;;;;;;;18.71;35.61;99658.04;108365;1251;70111;-67
2024/04/15 02:15:37;;;;;;;3.90;2.60;;;;;;;18.60;35.22;99659.42;108243;1251;72718;-66
2024/04/15 02:18:05;;;;;;;3.00;1.80;;;;;;;18.59;35.45;99656.83;108239;1251;61208;-65
2024/04/15 02:20:32;;;;;;;5.50;1.80;;;;;;;18.40;35.14;99659.55;108304;1251;61235;-65
2024/04/15 02:23:00;;;;;;;4.30;1.70;;;;;;;18.34;35.03;99659.54;108424;1251;74661;-66
2024/04/15 02:25:27;;;;;;;3.30;2.20;;;;;;;18.28;35.67;99655.50;108232;1250;69945;-65
2024/04/15 02:27:54;;;;;;;3.40;2.10;;;;;;;18.00;35.30;99650.72;108221;1254;73224;-66
2024/04/15 02:30:22;;;;;;;3.50;1.90;;;;;;;17.90;35.26;99649.36;108251;1251;60894;-66
2024/04/15 02:32:49;;;;;;;8.80;2.20;;;;;;;17.79;35.50;99650.46;108331;1251;61176;-66
2024/04/15 02:35:16;;;;;;;3.90;1.90;;;;;;;17.75;35.54;99652.73;108321;1251;75008;-67
2024/04/15 02:37:43;;;;;;;2.20;1.70;;;;;;;17.74;36.33;99655.28;108307;1251;69911;-66
2024/04/15 02:40:11;;;;;;;6.10;2.00;;;;;;;17.70;36.26;99654.14;108260;1256;72716;-66
2024/04/15 02:42:38;;;;;;;4.80;2.20;;;;;;;17.78;36.33;99651.45;108310;1251;61237;-65
2024/04/15 02:45:05;;;;;;;6.00;2.00;;;;;;;17.75;36.97;99654.34;108268;1251;61099;-65
2024/04/15 02:47:33;;;;;;;5.30;2.30;;;;;;;17.65;36.80;99654.71;108248;1251;74636;-65
2024/04/15 02:50:00;;;;;;;4.90;1.80;;;;;;;17.53;36.96;99656.14;108279;1251;69084;-65
2024/04/15 02:52:28;;;;;;;5.10;2.40;;;;;;;17.32;37.35;99657.08;108418;1251;72435;-65
2024/04/15 02:54:55;;;;;;;4.30;2.30;;;;;;;17.22;38.13;99651.96;108283;1251;61084;-66
2024/04/15 02:57:22;;;;;;;6.30;2.50;;;;;;;17.02;38.68;99658.59;108305;1251;59943;-65
2024/04/15 02:59:50;;;;;;;5.90;2.60;;;;;;;16.90;38.98;99653.91;108317;1251;74719;-65
2024/04/15 03:02:17;;;;;;;7.10;2.80;;;;;;;16.87;39.29;99660.50;108292;1251;70300;-65
2024/04/15 03:04:46;;;;;;;4.00;2.30;;;;;;;16.81;39.67;99664.62;108268;1251;72678;-65
2024/04/15 03:07:13;;;;;;;4.50;2.60;;;;;;;16.79;39.96;99661.28;108445;1254;61205;-66
2024/04/15 03:09:40;;;;;;;6.10;2.70;;;;;;;16.73;40.39;99665.35;108371;1250;61107;-66
2024/04/15 03:12:08;;;;;;;5.50;2.70;;;;;;;16.58;40.78;99666.90;108287;1251;73424;-66
2024/04/15 03:14:35;;;;;;;5.10;2.70;;;;;;;16.46;41.18;99667.41;108407;1251;70557;-66
2024/04/15 03:17:02;;;;;;;4.80;2.80;;;;;;;16.42;41.33;99672.98;108316;1251;72675;-66
2024/04/15 03:19:30;;;;;;;3.10;2.60;;;;;;;16.42;41.25;99672.66;108363;1251;61387;-66
2024/04/15 03:21:57;;;;;;;4.70;2.90;;;;;;;16.27;41.87;99680.40;108369;1251;61175;-66
2024/04/15 03:24:27;;;;;;;4.50;2.80;;;;;;;16.37;41.92;99685.98;108404;1251;74625;-66
2024/04/15 03:26:55;;;;;;;6.10;2.50;;;;;;;16.51;42.25;99689.91;108288;1251;70771;-66
2024/04/15 03:29:22;;;;;;;5.20;3.00;;;;;;;16.75;42.04;99694.52;108247;1251;72728;-66
2024/04/15 03:31:49;;;;;;;3.30;2.30;;;;;;;17.02;41.62;99696.88;108216;1254;60562;-66
2024/04/15 03:34:18;;;;;;;3.90;2.20;;;;;;;16.96;41.11;99699.25;108316;1251;60959;-66
2024/04/15 03:36:45;;;;;;;4.90;2.60;;;;;;;17.06;40.85;99701.92;108306;1251;74755;-65
2024/04/15 03:39:13;;;;;;;5.50;2.50;;;;;;;17.31;40.46;99707.78;108313;1256;70311;-66
2024/04/15 03:41:40;;;;;;;5.20;2.30;;;;;;;17.05;41.04;99710.65;108338;1251;71709;-66
2024/04/15 03:44:07;;;;;;;9.40;2.70;;;;;;;17.07;40.99;99711.30;108295;1251;61283;-66
2024/04/15 03:46:34;;;;;;;5.50;2.70;;;;;;;17.02;41.21;99711.81;108340;1251;61261;-65
2024/04/15 03:49:02;;;;;;;6.90;2.50;;;;;;;16.88;41.45;99713.98;108385;1251;74610;-66
2024/04/15 03:51:31;;;;;;;4.00;2.50;;;;;;;17.05;41.26;99710.67;108320;1256;68943;-66
2024/04/15 03:53:58;;;;;;;6.40;2.50;;;;;;;17.14;41.44;99710.02;108205;1251;72720;-66
2024/04/15 03:56:25;;;;;;;5.10;2.40;;;;;;;17.16;41.34;99703.67;108206;1251;61332;-66
2024/04/15 03:58:52;;;;;;;5.00;2.80;;;;;;;16.99;41.82;99702.40;108255;1251;61237;-66
2024/04/15 04:04:18;;;;;;;7.50;2.50;;;;;;;15.03;47.26;99709.27;104978;1290;600931;-67
2024/04/15 04:06:46;;;;;;;4.90;2.50;;;;;;;17.00;43.09;99703.88;107358;1264;59752;-66
2024/04/15 04:09:13;;;;;;;6.00;2.70;;;;;;;18.44;41.23;99697.48;107293;1262;60008;-67
2024/04/15 04:11:41;;;;;;;3.40;2.10;;;;;;;19.10;39.48;99689.70;107300;1263;71805;-66
2024/04/15 04:14:08;;;;;;;9.80;2.20;;;;;;;19.56;38.43;99689.62;107653;1260;70032;-66
2024/04/15 04:16:35;;;;;;;4.60;2.10;;;;;;;20.26;36.67;99683.25;107536;1260;72642;-67
2024/04/15 04:19:04;;;;;;;4.30;2.20;;;;;;;21.01;35.00;99682.19;107601;1258;198965;-67
2024/04/15 04:21:31;;;;;;;4.30;2.30;;;;;;;21.62;34.62;99681.60;107804;1256;59502;-66
2024/04/15 04:23:59;;;;;;;7.30;2.70;;;;;;;22.13;33.35;99681.31;107698;1256;73298;-66
2024/04/15 04:26:26;;;;;;;4.70;2.30;;;;;;;22.30;32.96;99679.23;107710;1257;70127;-67
2024/04/15 04:28:53;;;;;;;6.90;3.10;;;;;;;22.76;32.70;99673.98;107726;1258;70856;-67
2024/04/15 04:31:21;;;;;;;7.10;3.00;;;;;;;23.17;31.59;99673.52;107776;1257;60522;-67
2024/04/15 04:33:48;;;;;;;4.90;2.50;;;;;;;23.34;31.09;99675.98;107775;1256;60433;-67
2024/04/15 04:36:16;;;;;;;10.00;3.40;;;;;;;23.40;31.13;99672.70;108018;1254;73894;-66
2024/04/15 04:38:44;;;;;;;8.50;3.70;;;;;;;23.43;30.57;99670.95;107975;1254;72014;-66
2024/04/15 04:41:12;;;;;;;8.90;4.00;;;;;;;23.44;30.16;99669.05;107922;1257;73296;-67
2024/04/15 04:43:40;;;;;;;11.70;4.80;;;;;;;23.21;29.67;99664.54;107886;1257;60424;-67
2024/04/15 04:46:11;;;;;;;8.20;5.00;;;;;;;22.93;30.10;99670.91;107885;1257;60456;-67
2024/04/15 04:48:39;;;;;;;13.20;4.80;;;;;;;23.29;30.47;99674.14;108004;1259;73813;-67
2024/04/15 04:51:10;;;;;;;12.10;4.40;;;;;;;23.66;29.20;99673.75;107868;1260;69661;-67
2024/04/15 04:53:37;;;;;;;10.60;4.00;;;;;;;24.00;29.14;99673.95;107861;1254;72630;-67
2024/04/15 04:56:14;;;;;;;10.00;4.20;;;;;;;24.28;28.54;99674.83;107841;1255;60325;-67
2024/04/15 04:58:43;;;;;;;6.30;4.50;;;;;;;24.84;27.70;99674.04;107996;1254;60397;-67
2024/04/15 05:01:14;;;;;;;6.80;4.60;;;;;;;25.31;27.19;99666.40;108020;1254;73091;-67
2024/04/15 05:03:48;;;;;;;9.60;3.80;;;;;;;25.61;26.98;99667.52;107903;1254;71341;-67
2024/04/15 05:06:17;;;;;;;11.90;3.50;;;;;;;25.87;26.79;99663.16;107921;1254;72759;-66
2024/04/15 05:08:45;;;;;;;7.40;3.40;;;;;;;26.35;26.36;99650.64;107934;1254;61071;-66
2024/04/15 05:11:12;;;;;;;5.90;3.20;;;;;;;26.64;25.37;99641.23;108280;1251;60338;-67
2024/04/15 05:13:39;;;;;;;4.70;2.70;;;;;;;26.55;24.98;99635.60;108134;1251;75913;-67
2024/04/15 05:16:11;;;;;;;7.80;2.90;;;;;;;26.58;25.05;99633.71;108257;1257;70591;-67
2024/04/15 05:18:39;;;;;;;6.50;2.50;;;;;;;26.58;24.41;99631.75;108263;1251;73817;-67
2024/04/15 05:21:16;;;;;;;6.90;2.60;;;;;;;26.59;24.62;99626.55;108251;1251;61022;-68
2024/04/15 05:23:44;;;;;;;7.00;2.10;;;;;;;26.57;24.36;99625.20;108221;1251;59688;-66
2024/04/15 05:26:12;;;;;;;3.50;2.10;;;;;;;26.58;24.09;99627.09;108253;1250;74095;-67
2024/04/15 05:28:40;;;;;;;8.00;2.30;;;;;;;26.40;24.52;99623.66;108255;1256;70482;-67
2024/04/15 05:31:07;;;;;;;6.70;1.90;;;;;;;26.24;24.59;99618.99;108255;1256;72501;-67
2024/04/15 05:33:34;;;;;;;3.80;1.90;;;;;;;26.28;23.83;99619.80;108307;1251;61300;-68
2024/04/15 05:36:02;;;;;;;3.70;2.10;;;;;;;26.25;24.23;99615.39;108202;1251;60734;-66
2024/04/15 05:38:29;;;;;;;5.70;2.00;;;;;;;26.34;24.55;99610.44;108166;1251;76050;-66
2024/04/15 05:40:57;;;;;;;3.10;1.90;;;;;;;26.48;24.51;99616.27;108243;1251;71552;-67
2024/04/15 05:43:25;;;;;;;6.00;1.70;;;;;;;26.66;23.45;99614.73;108258;1251;72610;-66
2024/04/15 05:45:53;;;;;;;4.60;1.70;;;;;;;26.98;22.50;99611.23;108106;1251;61020;-67
2024/04/15 05:48:21;;;;;;;5.00;1.90;;;;;;;27.30;22.17;99606.98;108285;1251;60189;-67
2024/04/15 05:50:48;;;;;;;2.40;1.30;;;;;;;27.22;20.84;99607.70;108193;1251;72597;-67
2024/04/15 05:53:16;;;;;;;5.20;1.10;;;;;;;27.19;21.12;99599.06;108260;1254;70689;-66
2024/04/15 05:55:43;;;;;;;6.70;1.80;;;;;;;26.90;20.91;99605.63;108235;1251;73055;-67
2024/04/15 05:58:11;;;;;;;3.30;1.50;;;;;;;26.87;20.31;99611.40;108266;1256;59352;-66
2024/04/15 06:00:38;;;;;;;3.30;1.70;;;;;;;26.90;21.31;99610.29;108284;1251;62346;-66
2024/04/15 06:03:06;;;;;;;4.30;1.60;;;;;;;27.13;21.14;99614.85;108223;1251;75254;-67
2024/04/15 06:05:33;;;;;;;5.70;1.90;;;;;;;27.33;20.61;99616.70;108219;1251;69772;-66
2024/04/15 06:08:01;;;;;;;9.30;1.90;;;;;;;27.54;20.29;99626.73;108218;1254;73415;-66
2024/04/15 06:10:28;;;;;;;6.60;2.20;;;;;;;27.90;20.13;99628.50;108227;1253;61022;-67
2024/04/15 06:12:56;;;;;;;5.90;2.00;;;;;;;28.44;20.26;99628.79;108248;1251;60307;-67
2024/04/15 06:15:23;;;;;;;9.60;1.70;;;;;;;28.46;19.08;99622.55;108222;1256;76342;-66
2024/04/15 06:17:50;;;;;;;7.50;1.80;;;;;;;28.53;19.05;99606.45;108249;1251;70553;-67
2024/04/15 06:20:18;;;;;;;4.00;1.80;;;;;;;28.60;19.11;99595.21;108233;1254;72079;-67
2024/04/15 06:22:49;;;;;;;;;;;;;;;28.80;18.85;99589.27;108184;1253;60397;-67
2024/04/15 06:25:16;;;;;;;6.60;2.00;;;;;;;28.88;19.69;99583.58;108182;1256;60386;-67
2024/04/15 06:27:44;;;;;;;8.60;1.80;;;;;;;28.48;19.14;99580.83;108204;1251;76110;-66
2024/04/15 06:30:11;;;;;;;5.00;1.60;;;;;;;28.03;19.18;99578.56;108190;1256;71396;-66
2024/04/15 06:32:38;;;;;;;6.00;1.70;;;;;;;27.66;19.89;99583.70;108182;1251;73613;-67
2024/04/15 06:35:06;;;;;;;5.20;2.00;;;;;;;27.52;19.70;99588.09;108151;1254;60551;-66
2024/04/15 06:37:38;;;;;;;3.70;1.50;;;;;;;27.04;20.02;99587.77;108074;1254;62070;-66
2024/04/15 06:40:06;;;;;;;5.90;1.70;;;;;;;26.62;20.77;99588.51;108048;1252;76303;-66
2024/04/15 06:42:34;;;;;;;7.40;2.40;;;;;;;26.72;20.85;99578.35;108109;1254;68778;-66
2024/04/15 06:45:03;;;;;;;8.50;2.30;;;;;;;26.95;20.73;99573.11;108063;1254;75295;-67
2024/04/15 06:47:30;;;;;;;7.00;1.80;;;;;;;26.94;20.69;99575.11;108047;1254;61040;-66
2024/04/15 06:49:57;;;;;;;10.20;2.00;;;;;;;26.63;20.14;99566.96;108103;1253;60431;-66
2024/04/15 06:52:25;;;;;;;5.30;1.90;;;;;;;26.47;20.75;99563.85;108064;1253;74747;-66
2024/04/15 06:54:54;;;;;;;5.70;2.10;;;;;;;26.16;20.63;99565.33;108048;1257;70199;-66
2024/04/15 06:57:22;;;;;;;10.40;2.60;;;;;;;26.14;21.02;99561.38;108041;1252;74951;-66
2024/04/15 06:59:49;;;;;;;8.80;2.90;;;;;;;25.97;20.95;99565.80;108066;1254;60513;-67
2024/04/15 07:02:21;;;;;;;5.90;2.80;;;;;;;25.85;20.78;99574.73;108053;1254;60290;-67
2024/04/15 07:04:50;;;;;;;9.70;3.10;;;;;;;25.88;20.91;99574.22;108069;1252;74739;-68
2024/04/15 07:07:19;;;;;;;8.70;3.30;;;;;;;26.15;21.46;99576.60;108107;1254;72653;-67
2024/04/15 07:09:46;;;;;;;8.20;2.80;;;;;;;26.50;21.06;99568.73;108187;1254;71801;-66
2024/04/15 07:12:13;;;;;;;8.10;2.50;;;;;;;26.23;21.84;99568.73;108085;1252;62235;-67
2024/04/15 07:14:41;;;;;;;11.70;2.80;;;;;;;26.24;21.56;99568.77;108164;1254;60460;-67
2024/04/15 07:17:08;;;;;;;6.60;2.70;;;;;;;26.61;21.87;99557.83;108116;1253;72039;-67
2024/04/15 07:19:36;;;;;;;6.00;2.60;;;;;;;26.71;21.70;99547.45;108103;1254;70683;-68
2024/04/15 07:22:03;;;;;;;8.40;3.10;;;;;;;26.63;21.41;99551.95;108061;1255;73091;-68
2024/04/15 07:24:31;;;;;;;5.60;2.80;;;;;;;26.27;21.75;99564.58;108072;1254;60995;-67
2024/04/15 07:26:58;;;;;;;9.30;2.70;;;;;;;26.25;21.80;99562.68;108090;1254;61018;-66
2024/04/15 07:29:25;;;;;;;6.90;2.10;;;;;;;26.15;21.92;99556.84;108064;1252;74663;-66
2024/04/15 07:31:54;;;;;;;7.20;2.20;;;;;;;26.21;21.81;99548.92;108104;1254;70919;-66
2024/04/15 07:34:21;;;;;;;6.40;2.00;;;;;;;26.25;21.93;99559.24;108058;1253;72983;-66
2024/04/15 07:36:49;;;;;;;8.10;2.40;;;;;;;26.46;21.61;99547.04;108132;1251;60126;-67
2024/04/15 07:39:16;;;;;;;5.00;1.60;;;;;;;26.57;21.47;99544.13;108175;1251;60250;-66
2024/04/15 07:41:45;;;;;;;7.30;1.70;;;;;;;26.68;20.97;99541.91;108161;1251;74861;-66
2024/04/15 07:44:12;;;;;;;6.00;1.90;;;;;;;26.88;21.39;99522.44;108245;1251;72393;-67
2024/04/15 07:46:40;;;;;;;11.80;2.00;;;;;;;27.06;21.22;99520.37;108203;1251;71456;-66
2024/04/15 07:49:07;;;;;;;6.20;1.80;;;;;;;26.47;21.05;99521.67;108168;1253;60275;-66
2024/04/15 07:51:35;;;;;;;7.80;2.10;;;;;;;25.97;21.43;99527.19;108200;1251;60457;-66
2024/04/15 07:54:02;;;;;;;6.60;1.50;;;;;;;26.06;20.50;99523.02;108161;1251;74375;-66
2024/04/15 07:56:30;;;;;;;5.50;1.50;;;;;;;26.49;20.66;99512.34;108282;1251;68849;-67
2024/04/15 07:58:57;;;;;;;7.30;1.90;;;;;;;26.89;19.53;99502.11;108192;1252;73040;-67
2024/04/15 08:01:24;;;;;;;6.70;1.80;;;;;;;27.59;19.41;99485.56;108165;1256;62397;-67
2024/04/15 08:03:53;;;;;;;7.40;1.40;;;;;;;27.94;18.52;99478.80;108205;1253;60289;-67
2024/04/15 08:06:22;;;;;;;15.10;2.00;;;;;;;28.07;18.37;99475.73;108141;1254;74424;-67
2024/04/15 08:08:50;;;;;;;7.50;1.80;;;;;;;28.21;18.93;99465.12;108183;1254;68964;-67
2024/04/15 08:11:18;;;;;;;3.80;1.80;;;;;;;28.15;18.80;99463.16;108124;1254;74495;-67
2024/04/15 08:13:45;;;;;;;9.00;1.40;;;;;;;28.20;18.74;99476.35;108083;1254;61068;-67
2024/04/15 08:16:13;;;;;;;8.20;1.60;;;;;;;28.47;19.00;99479.42;108112;1252;61112;-67
2024/04/15 08:18:40;;;;;;;10.30;1.90;;;;;;;29.17;18.03;99488.75;108095;1256;75306;-66
2024/04/15 08:21:07;;;;;;;7.50;1.40;;;;;;;29.63;17.92;99478.20;108108;1253;72689;-66
2024/04/15 08:23:34;;;;;;;4.60;1.50;;;;;;;30.15;17.73;99470.96;108161;1254;70976;-67
2024/04/15 08:26:02;;;;;;;5.40;1.30;;;;;;;30.18;16.92;99465.67;108184;1254;60729;-68
2024/04/15 08:28:29;;;;;;;6.50;1.70;;;;;;;29.57;17.58;99485.79;108171;1253;60990;-67
2024/04/15 08:30:57;;;;;;;5.00;1.30;;;;;;;29.28;17.88;99483.90;108167;1254;74709;-68
2024/04/15 08:33:24;;;;;;;6.50;1.50;;;;;;;29.19;18.28;99487.42;108064;1254;71885;-67
2024/04/15 08:35:52;;;;;;;5.50;1.70;;;;;;;28.53;19.00;99486.69;108114;1254;75020;-67
2024/04/15 08:38:20;;;;;;;10.90;1.70;;;;;;;28.32;19.06;99487.40;108063;1253;61234;-67
2024/04/15 08:40:57;;;;;;;12.90;1.90;;;;;;;27.96;19.83;99488.77;108073;1254;61243;-67
2024/04/15 08:43:28;;;;;;;5.40;1.60;;;;;;;27.75;20.39;99482.55;108062;1254;75997;-67
2024/04/15 08:46:00;;;;;;;8.80;1.80;;;;;;;27.82;20.36;99475.92;108112;1254;72275;-67
2024/04/15 08:48:28;;;;;;;8.30;1.90;;;;;;;28.27;20.81;99467.14;108090;1254;73145;-66
2024/04/15 08:50:57;;;;;;;5.80;2.00;;;;;;;28.65;20.47;99465.88;108064;1254;61345;-66
2024/04/15 08:53:24;;;;;;;8.30;2.50;;;;;;;28.31;21.26;99467.00;107996;1254;62325;-67
2024/04/15 08:55:51;;;;;;;4.70;1.90;;;;;;;28.03;21.99;99463.77;108114;1254;74760;-67
2024/04/15 08:58:19;;;;;;;5.60;2.10;;;;;;;27.67;21.95;99459.92;108076;1254;70540;-67
2024/04/15 09:00:46;;;;;;;6.10;2.00;;;;;;;27.97;22.15;99459.73;107945;1254;72797;-67
2024/04/15 09:03:14;;;;;;;7.00;1.90;;;;;;;28.27;22.23;99466.07;107933;1254;61042;-67
2024/04/15 09:05:41;;;;;;;9.00;2.30;;;;;;;28.57;21.68;99464.36;108022;1254;61121;-67
2024/04/15 09:08:09;;;;;;;9.40;2.00;;;;;;;28.70;21.86;99456.02;108003;1254;75086;-66
2024/04/15 09:10:37;;;;;;;8.30;2.00;;;;;;;28.62;21.80;99458.17;108034;1254;72822;-68
2024/04/15 09:13:04;;;;;;;5.60;2.10;;;;;;;28.46;22.17;99459.70;107976;1254;73953;-67
2024/04/15 09:15:32;;;;;;;4.50;2.00;;;;;;;28.44;22.22;99467.95;108009;1259;61019;-67
2024/04/15 09:18:00;;;;;;;3.80;1.80;;;;;;;28.20;22.27;99472.80;107960;1254;62172;-67
2024/04/15 09:20:28;;;;;;;5.40;2.10;;;;;;;27.64;22.48;99465.45;108020;1258;74771;-66
2024/04/15 09:23:16;;;;;;;6.30;1.90;;;;;;;26.85;23.23;99472.05;107863;1254;73125;-67
2024/04/15 09:25:43;;;;;;;10.10;1.90;;;;;;;26.86;23.20;99468.84;107999;1254;72010;-66
2024/04/15 09:28:10;;;;;;;10.20;2.10;;;;;;;26.58;23.60;99478.13;108019;1254;61081;-67
2024/04/15 09:30:38;;;;;;;6.70;1.70;;;;;;;26.50;23.43;99492.23;108014;1253;61126;-67
2024/04/15 09:33:05;;;;;;;7.70;1.80;;;;;;;26.59;23.18;99489.58;108013;1254;76929;-67
2024/04/15 09:35:33;;;;;;;4.70;1.60;;;;;;;26.75;23.00;99480.96;108053;1254;72648;-67
2024/04/15 09:38:00;;;;;;;8.70;1.80;;;;;;;26.85;22.61;99477.46;108114;1254;71879;-67
2024/04/15 09:40:28;;;;;;;6.30;1.60;;;;;;;26.41;22.67;99472.02;108088;1253;61081;-67
2024/04/15 09:42:58;;;;;;;4.40;1.50;;;;;;;25.94;22.67;99461.09;108041;1258;61324;-67
2024/04/15 09:45:27;;;;;;;6.10;2.10;;;;;;;25.95;22.76;99464.46;107989;1254;76884;-67
2024/04/15 09:47:55;;;;;;;5.00;1.50;;;;;;;25.96;22.94;99463.89;107998;1254;72602;-66
2024/04/15 09:50:23;;;;;;;15.30;1.90;;;;;;;25.85;22.95;99473.58;108091;1254;73600;-67
2024/04/15 09:52:55;;;;;;;9.40;1.70;;;;;;;25.85;23.20;99464.67;108107;1254;62477;-67
2024/04/15 09:55:30;;;;;;;7.40;2.10;;;;;;;25.54;23.27;99464.79;108112;1254;61135;-67
2024/04/15 09:57:58;;;;;;;4.20;1.40;;;;;;;25.79;23.22;99463.48;108128;1254;76234;-66
2024/04/15 10:00:25;;;;;;;10.80;2.20;;;;;;;25.82;22.98;99464.96;108100;1254;69840;-67
2024/04/15 10:02:54;;;;;;;6.90;2.20;;;;;;;25.57;23.00;99460.19;108160;1254;73839;-67
2024/04/15 10:05:22;;;;;;;4.90;1.50;;;;;;;25.52;23.01;99447.98;108188;1253;61187;-66
2024/04/15 10:07:54;;;;;;;7.20;1.80;;;;;;;25.29;23.20;99445.27;108126;1254;61010;-66
2024/04/15 10:10:21;;;;;;;4.90;1.50;;;;;;;25.26;23.24;99444.48;108199;1256;73788;-67
2024/04/15 10:12:53;;;;;;;10.80;1.80;;;;;;;25.40;23.70;99451.97;108134;1254;71462;-67
2024/04/15 10:15:23;;;;;;;7.90;1.80;;;;;;;25.53;23.58;99457.55;108155;1254;72916;-66
2024/04/15 10:18:18;;;;;;;11.50;1.90;;;;;;;25.36;23.41;99458.54;108129;1253;60989;-67
2024/04/15 10:20:46;;;;;;;7.00;1.50;;;;;;;25.36;24.20;99442.77;108089;1254;62217;-66
2024/04/15 10:23:18;;;;;;;5.80;2.10;;;;;;;25.17;23.76;99433.42;108119;1254;75891;-67
2024/04/15 10:25:46;;;;;;;7.00;1.50;;;;;;;24.86;24.01;99429.67;108182;1253;72239;-66
2024/04/15 10:28:14;;;;;;;7.10;1.70;;;;;;;24.69;24.50;99424.96;108040;1254;71850;-66
2024/04/15 10:30:44;;;;;;;11.80;1.80;;;;;;;24.83;24.00;99418.95;108000;1254;61218;-66
2024/04/15 10:33:13;;;;;;;8.00;1.50;;;;;;;24.94;24.16;99421.98;108042;1253;61086;-67
2024/04/15 10:35:41;;;;;;;8.70;1.50;;;;;;;25.04;23.93;99402.21;108165;1254;74741;-66
2024/04/15 10:38:09;;;;;;;5.00;1.90;;;;;;;25.11;23.92;99392.66;108078;1254;69353;-66
2024/04/15 10:40:43;;;;;;;5.30;1.70;;;;;;;25.10;23.83;99385.15;108063;1254;74888;-66
2024/04/15 10:43:12;;;;;;;7.70;2.10;;;;;;;25.13;24.05;99377.71;108084;1254;62250;-67
2024/04/15 10:45:39;;;;;;;5.40;2.00;;;;;;;25.34;23.74;99377.65;108213;1255;62265;-67
2024/04/15 10:48:07;;;;;;;6.00;1.40;;;;;;;25.36;23.72;99379.64;108153;1254;74384;-67
2024/04/15 10:50:34;;;;;;;7.60;1.90;;;;;;;25.11;23.69;99389.90;108060;1254;70619;-67
2024/04/15 10:53:02;;;;;;;8.60;2.00;;;;;;;25.02;23.95;99391.27;108118;1254;72753;-67
2024/04/15 10:55:30;;;;;;;4.20;1.40;;;;;;;24.88;24.05;99397.22;108015;1254;61339;-67
2024/04/15 10:57:58;;;;;;;7.00;1.90;;;;;;;24.94;24.04;99402.35;107929;1254;62047;-67
2024/04/15 11:00:25;;;;;;;8.70;1.70;;;;;;;24.88;24.37;99390.09;108034;1253;76854;-67
2024/04/15 11:02:54;;;;;;;7.30;1.50;;;;;;;24.90;24.41;99389.31;108155;1254;69461;-67
2024/04/15 11:05:23;;;;;;;;;;;;;;;24.75;24.49;99402.99;108022;1257;75418;-67
2024/04/15 11:07:53;;;;;;;4.80;1.50;;;;;;;24.74;24.49;99407.40;108098;1254;59614;-66
2024/04/15 11:10:20;;;;;;;5.70;1.60;;;;;;;24.59;24.56;99396.23;108136;1254;61109;-67
2024/04/15 11:12:52;;;;;;;4.90;1.50;;;;;;;24.48;25.00;99392.96;108065;1254;75034;-66
2024/04/15 11:15:21;;;;;;;7.20;1.60;;;;;;;24.31;25.22;99399.75;108026;1258;71181;-67
2024/04/15 11:17:50;;;;;;;4.30;1.60;;;;;;;24.40;25.20;99400.40;108033;1254;75097;-65
2024/04/15 11:20:22;;;;;;;7.40;1.50;;;;;;;24.31;25.37;99411.80;108088;1253;61230;-66
2024/04/15 11:22:50;;;;;;;5.70;1.70;;;;;;;24.15;25.39;99413.95;108066;1255;61081;-66
2024/04/15 11:25:18;;;;;;;8.70;1.50;;;;;;;24.18;25.80;99414.58;108015;1259;77021;-67
2024/04/15 11:27:47;;;;;;;5.00;1.80;;;;;;;24.12;25.58;99414.20;108015;1257;71248;-67
2024/04/15 11:30:22;;;;;;;8.10;1.60;;;;;;;24.06;25.58;99424.80;108027;1254;74981;-66